createdAt,value
2022-07-31T00:00:16.819Z,21.53
2022-07-31T00:02:44.631Z,21.50
2022-07-31T00:05:11.482Z,21.51
2022-07-31T00:07:38.130Z,21.41
2022-07-31T00:10:05.763Z,21.43
2022-07-31T00:12:32.373Z,21.19
2022-07-31T00:15:04.133Z,21.12
2022-07-31T00:17:32.355Z,21.17
2022-07-31T00:19:58.834Z,21.16
2022-07-31T00:22:25.294Z,21.03
2022-07-31T00:24:51.801Z,20.96
2022-07-31T00:27:18.314Z,20.91
2022-07-31T00:29:44.794Z,20.82
2022-07-31T00:32:11.539Z,20.89
2022-07-31T00:34:38.113Z,20.91
2022-07-31T00:37:05.199Z,20.94
2022-07-31T00:39:32.632Z,20.90
2022-07-31T00:41:59.255Z,20.80
2022-07-31T00:44:26.040Z,20.71
2022-07-31T00:46:52.745Z,20.72
2022-07-31T00:49:20.037Z,20.82
2022-07-31T00:51:47.074Z,20.72
2022-07-31T00:54:16.290Z,20.72
2022-07-31T00:56:49.084Z,20.75
2022-07-31T00:59:15.674Z,20.76
2022-07-31T01:01:42.157Z,20.81
2022-07-31T01:04:08.653Z,20.80
2022-07-31T01:06:42.786Z,20.79
2022-07-31T01:09:09.537Z,20.74
2022-07-31T01:11:44.708Z,20.77
2022-07-31T01:14:12.136Z,20.67
2022-07-31T01:16:46.862Z,20.67
2022-07-31T01:19:43.634Z,20.61
2022-07-31T01:22:34.242Z,20.60
2022-07-31T01:25:21.290Z,20.49
2022-07-31T01:27:50.683Z,20.43
2022-07-31T01:30:17.647Z,20.36
2022-07-31T01:32:49.309Z,20.22
2022-07-31T01:35:20.631Z,20.13
2022-07-31T01:38:07.858Z,20.09
2022-07-31T01:40:38.134Z,19.99
2022-07-31T01:43:11.663Z,19.91
2022-07-31T01:45:42.785Z,19.77
2022-07-31T01:48:15.857Z,19.78
2022-07-31T01:50:45.011Z,19.76
2022-07-31T01:53:15.213Z,19.71
2022-07-31T01:56:02.340Z,19.73
2022-07-31T01:58:34.945Z,19.63
2022-07-31T02:01:03.798Z,19.67
2022-07-31T02:03:44.530Z,19.72
2022-07-31T02:06:18.169Z,19.73
2022-07-31T02:08:50.541Z,19.74
2022-07-31T02:11:19.478Z,19.65
2022-07-31T02:13:47.330Z,19.68
2022-07-31T02:16:16.510Z,19.65
2022-07-31T02:18:43.570Z,19.71
2022-07-31T02:21:10.622Z,19.68
2022-07-31T02:23:38.545Z,19.62
2022-07-31T02:26:07.054Z,19.59
2022-07-31T02:28:38.012Z,19.51
2022-07-31T02:31:10.187Z,19.54
2022-07-31T02:33:38.214Z,19.48
2022-07-31T02:36:06.749Z,19.48
2022-07-31T02:38:35.138Z,19.53
2022-07-31T02:41:04.731Z,19.48
2022-07-31T02:43:33.255Z,19.39
2022-07-31T02:46:00.520Z,19.23
2022-07-31T02:48:27.777Z,19.23
2022-07-31T02:50:54.951Z,19.12
2022-07-31T02:53:22.102Z,19.11
2022-07-31T02:55:50.514Z,19.13
2022-07-31T02:58:17.139Z,19.09
2022-07-31T03:00:43.764Z,18.93
2022-07-31T03:03:10.290Z,18.89
2022-07-31T03:05:36.782Z,18.95
2022-07-31T03:08:03.326Z,19.01
2022-07-31T03:10:29.954Z,19.01
2022-07-31T03:12:58.261Z,19.14
2022-07-31T03:15:27.379Z,19.13
2022-07-31T03:17:54.865Z,19.06
2022-07-31T03:20:22.274Z,18.96
2022-07-31T03:22:49.620Z,18.94
2022-07-31T03:25:21.923Z,18.96
2022-07-31T03:27:55.948Z,18.77
2022-07-31T03:30:26.552Z,18.81
2022-07-31T03:32:54.918Z,18.81
2022-07-31T03:35:22.319Z,18.55
2022-07-31T03:37:49.533Z,18.57
2022-07-31T03:40:16.066Z,18.48
2022-07-31T03:42:43.378Z,18.58
2022-07-31T03:45:12.117Z,18.67
2022-07-31T03:47:38.660Z,18.53
2022-07-31T03:50:06.665Z,18.55
2022-07-31T03:52:33.490Z,18.58
2022-07-31T03:55:00.066Z,18.42
2022-07-31T03:57:29.053Z,18.47
2022-07-31T03:59:59.331Z,18.49
2022-07-31T04:02:27.447Z,18.42
2022-07-31T04:04:55.178Z,18.42
2022-07-31T04:07:21.643Z,18.39
2022-07-31T04:09:48.269Z,18.47
2022-07-31T04:12:14.989Z,18.53
2022-07-31T04:14:41.691Z,18.52
2022-07-31T04:17:08.570Z,18.52
2022-07-31T04:19:35.218Z,18.52
2022-07-31T04:22:02.546Z,18.65
2022-07-31T04:24:29.290Z,18.65
2022-07-31T04:26:56.971Z,18.61
2022-07-31T04:29:24.236Z,18.53
2022-07-31T04:31:51.012Z,18.51
2022-07-31T04:34:17.730Z,18.42
2022-07-31T04:36:44.226Z,18.51
2022-07-31T04:39:10.715Z,18.36
2022-07-31T04:41:37.305Z,18.45
2022-07-31T04:44:03.851Z,18.58
2022-07-31T04:46:30.358Z,18.68
2022-07-31T04:48:56.973Z,18.79
2022-07-31T04:51:24.743Z,18.62
2022-07-31T04:53:52.354Z,18.60
2022-07-31T04:56:37.316Z,18.52
2022-07-31T04:59:09.500Z,18.29
2022-07-31T05:01:36.573Z,18.37
2022-07-31T05:04:03.561Z,18.49
2022-07-31T05:06:35.362Z,18.56
2022-07-31T05:09:05.553Z,18.68
2022-07-31T05:11:36.352Z,18.69
2022-07-31T05:14:05.173Z,18.72
2022-07-31T05:16:33.575Z,18.59
2022-07-31T05:19:00.300Z,18.62
2022-07-31T05:21:27.187Z,18.45
2022-07-31T05:23:55.077Z,18.63
2022-07-31T05:26:22.026Z,18.57
2022-07-31T05:28:49.614Z,18.81
2022-07-31T05:31:18.205Z,19.11
2022-07-31T05:33:45.582Z,19.11
2022-07-31T05:36:12.775Z,19.09
2022-07-31T05:38:39.693Z,19.21
2022-07-31T05:41:06.332Z,19.31
2022-07-31T05:43:33.119Z,19.28
2022-07-31T05:45:59.728Z,19.17
2022-07-31T05:48:26.185Z,19.18
2022-07-31T05:50:52.768Z,19.27
2022-07-31T05:53:20.333Z,19.36
2022-07-31T05:55:49.125Z,19.38
2022-07-31T05:58:17.195Z,19.64
2022-07-31T06:00:46.315Z,19.68
2022-07-31T06:03:13.434Z,19.81
2022-07-31T06:05:41.175Z,19.84
2022-07-31T06:08:09.622Z,20.11
2022-07-31T06:10:37.373Z,19.94
2022-07-31T06:13:05.259Z,20.05
2022-07-31T06:15:36.354Z,20.25
2022-07-31T06:18:04.028Z,20.24
2022-07-31T06:20:30.981Z,20.32
2022-07-31T06:22:57.582Z,20.36
2022-07-31T06:25:24.231Z,20.39
2022-07-31T06:27:59.207Z,20.45
2022-07-31T06:30:27.996Z,20.45
2022-07-31T06:32:54.724Z,20.44
2022-07-31T06:35:21.265Z,20.58
2022-07-31T06:37:47.851Z,20.51
2022-07-31T06:40:14.578Z,20.63
2022-07-31T06:42:41.906Z,20.60
2022-07-31T06:45:09.358Z,20.84
2022-07-31T06:47:35.984Z,20.93
2022-07-31T06:50:03.646Z,20.84
2022-07-31T06:52:30.127Z,20.95
2022-07-31T06:54:56.607Z,21.00
2022-07-31T06:57:23.115Z,20.83
2022-07-31T06:59:49.621Z,21.16
2022-07-31T07:02:16.382Z,21.37
2022-07-31T07:04:56.320Z,21.41
2022-07-31T07:07:31.657Z,21.51
2022-07-31T07:09:58.852Z,21.73
2022-07-31T07:12:25.371Z,21.78
2022-07-31T07:14:53.505Z,21.99
2022-07-31T07:17:20.027Z,21.91
2022-07-31T07:19:46.695Z,21.73
2022-07-31T07:22:31.982Z,21.92
2022-07-31T07:25:00.352Z,22.02
2022-07-31T07:27:27.013Z,22.06
2022-07-31T07:29:53.523Z,22.27
2022-07-31T07:32:20.139Z,22.41
2022-07-31T07:34:46.607Z,22.55
2022-07-31T07:37:13.254Z,22.22
2022-07-31T07:39:39.722Z,22.46
2022-07-31T07:42:06.656Z,22.54
2022-07-31T07:44:34.060Z,22.86
2022-07-31T07:47:00.531Z,22.78
2022-07-31T07:49:27.100Z,22.88
2022-07-31T07:51:59.152Z,23.06
2022-07-31T07:54:36.336Z,23.26
2022-07-31T07:57:02.913Z,23.30
2022-07-31T07:59:29.401Z,22.99
2022-07-31T08:01:56.391Z,23.04
2022-07-31T08:04:22.908Z,23.28
2022-07-31T08:06:49.377Z,23.63
2022-07-31T08:09:15.903Z,23.49
2022-07-31T08:11:42.578Z,23.62
2022-07-31T08:14:09.588Z,23.87
2022-07-31T08:16:36.092Z,23.84
2022-07-31T08:19:02.707Z,23.71
2022-07-31T08:21:29.225Z,24.12
2022-07-31T08:23:55.819Z,23.72
2022-07-31T08:26:22.705Z,23.78
2022-07-31T08:28:54.849Z,23.68
2022-07-31T08:31:22.662Z,23.64
2022-07-31T08:33:49.171Z,23.67
2022-07-31T08:36:15.805Z,23.75
2022-07-31T08:38:42.291Z,23.74
2022-07-31T08:41:08.817Z,23.87
2022-07-31T08:44:00.618Z,23.75
2022-07-31T08:46:24.569Z,23.76
2022-07-31T08:48:54.482Z,24.08
2022-07-31T08:51:24.026Z,23.98
2022-07-31T08:53:54.489Z,23.91
2022-07-31T08:56:22.117Z,23.93
2022-07-31T08:58:48.690Z,24.08
2022-07-31T09:01:15.372Z,24.20
2022-07-31T09:03:42.210Z,24.21
2022-07-31T09:06:08.751Z,24.04
2022-07-31T09:08:36.949Z,24.11
2022-07-31T09:11:09.212Z,24.32
2022-07-31T09:13:36.022Z,24.25
2022-07-31T09:16:03.930Z,24.42
2022-07-31T09:18:31.205Z,24.66
2022-07-31T09:20:57.695Z,24.90
2022-07-31T09:23:26.538Z,24.77
2022-07-31T09:25:55.716Z,24.55
2022-07-31T09:28:35.718Z,24.56
2022-07-31T09:31:04.347Z,24.77
2022-07-31T09:33:32.014Z,24.92
2022-07-31T09:35:59.769Z,24.89
2022-07-31T09:38:44.706Z,24.98
2022-07-31T09:41:56.398Z,24.99
2022-07-31T09:44:10.156Z,24.97
2022-07-31T09:46:41.360Z,25.07
2022-07-31T09:49:08.057Z,25.25
2022-07-31T09:51:54.138Z,25.35
2022-07-31T09:54:25.673Z,25.79
2022-07-31T09:56:54.784Z,25.97
2022-07-31T09:59:21.402Z,26.00
2022-07-31T10:01:49.022Z,25.91
2022-07-31T10:04:20.661Z,25.64
2022-07-31T10:06:49.230Z,25.70
2022-07-31T10:09:18.983Z,25.95
2022-07-31T10:11:48.680Z,25.80
2022-07-31T10:14:24.042Z,26.11
2022-07-31T10:16:56.290Z,25.69
2022-07-31T10:19:23.671Z,25.49
2022-07-31T10:21:59.708Z,25.48
2022-07-31T10:24:30.124Z,25.48
2022-07-31T10:27:10.518Z,25.61
2022-07-31T10:29:39.355Z,25.66
2022-07-31T10:32:07.704Z,25.64
2022-07-31T10:34:35.272Z,25.68
2022-07-31T10:37:15.103Z,25.52
2022-07-31T10:40:03.854Z,25.68
2022-07-31T10:42:48.578Z,25.23
2022-07-31T10:45:17.356Z,25.28
2022-07-31T10:48:13.385Z,25.45
2022-07-31T10:50:39.913Z,25.34
2022-07-31T10:53:12.588Z,25.62
2022-07-31T10:55:39.697Z,25.68
2022-07-31T10:58:15.468Z,25.48
2022-07-31T11:00:43.108Z,25.67
2022-07-31T11:03:16.706Z,26.09
2022-07-31T11:06:02.549Z,26.29
2022-07-31T11:08:44.467Z,26.12
2022-07-31T11:11:11.497Z,25.98
2022-07-31T11:13:58.104Z,25.88
2022-07-31T11:16:29.076Z,25.91
2022-07-31T11:19:06.851Z,25.99
2022-07-31T11:21:39.753Z,26.17
2022-07-31T11:24:17.283Z,25.99
2022-07-31T11:26:51.492Z,26.19
2022-07-31T11:29:59.799Z,26.13
2022-07-31T11:32:26.439Z,25.91
2022-07-31T11:34:55.408Z,25.85
2022-07-31T11:37:35.296Z,25.87
2022-07-31T11:40:13.605Z,25.97
2022-07-31T11:42:59.782Z,26.06
2022-07-31T11:45:33.476Z,25.99
2022-07-31T11:48:12.394Z,26.03
2022-07-31T11:50:44.590Z,26.30
2022-07-31T11:53:12.055Z,26.15
2022-07-31T11:55:48.750Z,26.31
2022-07-31T11:58:16.878Z,26.22
2022-07-31T12:00:53.630Z,26.15
2022-07-31T12:03:23.501Z,26.05
2022-07-31T12:05:54.995Z,26.05
2022-07-31T12:08:24.232Z,26.15
2022-07-31T12:10:54.672Z,26.28
2022-07-31T12:13:22.664Z,26.38
2022-07-31T12:16:09.435Z,26.46
2022-07-31T12:18:59.052Z,27.05
2022-07-31T12:21:37.652Z,27.28
2022-07-31T12:24:12.511Z,27.11
2022-07-31T12:26:42.869Z,26.93
2022-07-31T12:29:11.509Z,26.63
2022-07-31T12:31:49.776Z,26.93
2022-07-31T12:34:30.191Z,26.86
2022-07-31T12:36:58.714Z,26.80
2022-07-31T12:39:53.781Z,27.10
2022-07-31T12:42:30.342Z,27.10
2022-07-31T12:44:58.916Z,27.00
2022-07-31T12:47:31.701Z,26.57
2022-07-31T12:49:59.336Z,26.30
2022-07-31T12:52:31.415Z,25.87
2022-07-31T12:54:58.707Z,25.68
2022-07-31T12:57:26.208Z,25.89
2022-07-31T12:59:54.438Z,25.64
2022-07-31T13:02:24.267Z,25.70
2022-07-31T13:04:50.771Z,25.31
2022-07-31T13:07:17.326Z,25.27
2022-07-31T13:09:44.988Z,25.08
2022-07-31T13:12:31.468Z,25.18
2022-07-31T13:14:57.958Z,25.27
2022-07-31T13:17:24.826Z,25.44
2022-07-31T13:19:51.277Z,25.61
2022-07-31T13:22:20.133Z,25.67
2022-07-31T13:24:47.062Z,25.49
2022-07-31T13:27:14.635Z,25.47
2022-07-31T13:29:41.362Z,25.38
2022-07-31T13:32:08.927Z,25.45
2022-07-31T13:34:35.969Z,25.10
2022-07-31T13:37:02.828Z,25.08
2022-07-31T13:39:29.549Z,25.24
2022-07-31T13:41:55.967Z,25.33
2022-07-31T13:44:22.422Z,25.23
2022-07-31T13:46:48.937Z,25.16
2022-07-31T13:49:15.640Z,25.25
2022-07-31T13:51:42.268Z,25.39
2022-07-31T13:54:08.783Z,25.49
2022-07-31T13:56:42.350Z,25.50
2022-07-31T13:59:11.669Z,25.50
2022-07-31T14:02:02.775Z,25.54
2022-07-31T14:04:32.378Z,25.50
2022-07-31T14:07:01.344Z,25.17
2022-07-31T14:09:30.410Z,25.23
2022-07-31T14:11:57.066Z,25.20
2022-07-31T14:14:24.015Z,25.10
2022-07-31T14:16:51.003Z,25.13
2022-07-31T14:19:17.719Z,24.99
2022-07-31T14:21:56.057Z,24.97
2022-07-31T14:24:24.389Z,25.09
2022-07-31T14:26:50.843Z,25.09
2022-07-31T14:29:17.485Z,25.15
2022-07-31T14:31:43.954Z,25.20
2022-07-31T14:34:10.471Z,25.19
2022-07-31T14:36:36.950Z,25.21
2022-07-31T14:39:03.533Z,25.29
2022-07-31T14:41:32.678Z,24.59
2022-07-31T14:43:59.389Z,24.66
2022-07-31T14:46:25.883Z,24.73
2022-07-31T14:48:52.521Z,25.00
2022-07-31T14:51:19.483Z,24.78
2022-07-31T14:53:46.831Z,25.03
2022-07-31T14:56:13.513Z,25.14
2022-07-31T14:58:57.821Z,25.11
2022-07-31T15:01:26.870Z,25.12
2022-07-31T15:03:57.888Z,25.13
2022-07-31T15:06:49.264Z,25.14
2022-07-31T15:09:11.321Z,25.32
2022-07-31T15:12:00.526Z,25.51
2022-07-31T15:14:24.422Z,25.34
2022-07-31T15:16:50.910Z,25.37
2022-07-31T15:19:17.643Z,25.42
2022-07-31T15:22:15.827Z,25.46
2022-07-31T15:24:34.623Z,25.65
2022-07-31T15:27:01.947Z,25.74
2022-07-31T15:30:05.554Z,25.51
2022-07-31T15:32:17.799Z,25.61
2022-07-31T15:34:44.914Z,25.67
2022-07-31T15:37:11.558Z,25.76
2022-07-31T15:40:02.502Z,25.68
2022-07-31T15:42:31.867Z,25.33
2022-07-31T15:44:58.472Z,25.55
2022-07-31T15:47:25.253Z,25.40
2022-07-31T15:49:51.813Z,25.44
2022-07-31T15:52:19.554Z,25.29
2022-07-31T15:54:47.526Z,25.32
2022-07-31T15:57:19.350Z,25.50
2022-07-31T15:59:46.569Z,25.68
2022-07-31T16:02:13.451Z,25.62
2022-07-31T16:04:52.534Z,25.82
2022-07-31T16:08:30.982Z,25.86
2022-07-31T16:10:17.939Z,25.80
2022-07-31T16:12:45.692Z,25.63
2022-07-31T16:15:12.930Z,25.86
2022-07-31T16:17:40.274Z,25.86
2022-07-31T16:20:20.632Z,25.76
2022-07-31T16:23:00.822Z,25.71
2022-07-31T16:25:29.068Z,25.79
2022-07-31T16:27:55.889Z,25.86
2022-07-31T16:30:22.908Z,25.77
2022-07-31T16:32:50.067Z,25.76
2022-07-31T16:35:16.655Z,25.77
2022-07-31T16:37:51.016Z,25.93
2022-07-31T16:40:28.929Z,26.19
2022-07-31T16:43:49.453Z,25.99
2022-07-31T16:45:55.094Z,25.99
2022-07-31T16:48:21.858Z,25.63
2022-07-31T16:50:54.095Z,25.75
2022-07-31T16:54:12.125Z,25.75
2022-07-31T16:56:12.937Z,25.73
2022-07-31T16:58:39.804Z,25.82
2022-07-31T17:01:06.369Z,25.89
2022-07-31T17:04:01.650Z,25.54
2022-07-31T17:06:35.885Z,25.64
2022-07-31T17:09:16.266Z,25.71
2022-07-31T17:11:46.522Z,25.45
2022-07-31T17:14:13.101Z,25.55
2022-07-31T17:16:43.459Z,25.36
2022-07-31T17:19:13.201Z,25.21
2022-07-31T17:21:43.967Z,25.32
2022-07-31T17:24:15.856Z,25.30
2022-07-31T17:26:43.570Z,25.24
2022-07-31T17:29:10.163Z,25.12
2022-07-31T17:31:36.664Z,25.00
2022-07-31T17:34:07.303Z,24.87
2022-07-31T17:36:35.878Z,24.79
2022-07-31T17:39:03.416Z,24.63
2022-07-31T17:41:30.466Z,24.32
2022-07-31T17:43:58.095Z,24.16
2022-07-31T17:46:29.338Z,23.60
2022-07-31T17:49:04.905Z,23.29
2022-07-31T17:51:32.210Z,22.88
2022-07-31T17:53:59.266Z,22.73
2022-07-31T17:56:26.652Z,22.50
2022-07-31T17:58:53.317Z,22.76
2022-07-31T18:01:19.877Z,22.57
2022-07-31T18:03:46.437Z,22.29
2022-07-31T18:06:12.947Z,22.48
2022-07-31T18:08:39.442Z,22.74
2022-07-31T18:11:09.399Z,22.58
2022-07-31T18:13:48.174Z,22.61
2022-07-31T18:16:17.511Z,22.63
2022-07-31T18:18:44.861Z,22.74
2022-07-31T18:21:11.984Z,22.76
2022-07-31T18:23:47.149Z,22.59
2022-07-31T18:26:15.135Z,22.62
2022-07-31T18:28:43.127Z,22.43
2022-07-31T18:31:15.530Z,22.43
2022-07-31T18:33:57.615Z,22.20
2022-07-31T18:36:24.108Z,22.21
2022-07-31T18:38:52.046Z,21.99
2022-07-31T18:41:23.054Z,21.90
2022-07-31T18:43:50.201Z,21.95
2022-07-31T18:46:17.004Z,22.17
2022-07-31T18:48:44.415Z,22.24
2022-07-31T18:51:11.390Z,22.11
2022-07-31T18:53:37.925Z,22.27
2022-07-31T18:56:04.890Z,22.31
2022-07-31T18:58:31.931Z,22.23
2022-07-31T19:00:58.761Z,22.32
2022-07-31T19:03:26.588Z,22.33
2022-07-31T19:05:54.625Z,22.35
2022-07-31T19:08:21.788Z,22.35
2022-07-31T19:10:55.561Z,22.29
2022-07-31T19:13:23.554Z,22.31
2022-07-31T19:15:53.223Z,22.28
2022-07-31T19:18:24.377Z,22.37
2022-07-31T19:21:15.945Z,22.16
2022-07-31T19:23:43.355Z,22.13
2022-07-31T19:26:09.857Z,22.26
2022-07-31T19:28:38.064Z,22.26
2022-07-31T19:31:04.551Z,22.08
2022-07-31T19:33:31.376Z,22.14
2022-07-31T19:36:01.938Z,22.22
2022-07-31T19:38:31.141Z,22.12
2022-07-31T19:40:57.801Z,21.99
2022-07-31T19:43:24.324Z,21.65
2022-07-31T19:46:10.741Z,21.88
2022-07-31T19:48:39.629Z,21.42
2022-07-31T19:51:06.535Z,21.53
2022-07-31T19:53:33.105Z,21.49
2022-07-31T19:56:01.885Z,21.38
2022-07-31T19:58:28.396Z,21.45
2022-07-31T20:00:54.935Z,21.53
2022-07-31T20:03:21.525Z,21.32
2022-07-31T20:05:48.028Z,21.31
2022-07-31T20:08:14.491Z,21.19
2022-07-31T20:10:41.034Z,21.40
2022-07-31T20:13:07.514Z,21.31
2022-07-31T20:15:51.537Z,21.30
2022-07-31T20:18:27.582Z,21.17
2022-07-31T20:21:03.679Z,21.37
2022-07-31T20:23:31.100Z,21.35
2022-07-31T20:25:58.628Z,21.19
2022-07-31T20:28:26.459Z,21.22
2022-07-31T20:30:53.318Z,21.25
2022-07-31T20:33:20.302Z,21.28
2022-07-31T20:35:49.213Z,21.09
2022-07-31T20:38:20.481Z,21.21
2022-07-31T20:40:53.776Z,21.24
2022-07-31T20:43:26.475Z,21.35
2022-07-31T20:45:53.728Z,21.30
2022-07-31T20:48:23.871Z,21.18
2022-07-31T20:50:51.203Z,21.11
2022-07-31T20:53:17.709Z,21.17
2022-07-31T20:55:49.330Z,21.10
2022-07-31T20:58:18.010Z,21.12
2022-07-31T21:00:45.436Z,21.16
2022-07-31T21:03:12.021Z,21.08
2022-07-31T21:05:38.588Z,21.09
2022-07-31T21:08:05.491Z,21.10
2022-07-31T21:10:32.028Z,21.10
2022-07-31T21:12:58.576Z,20.97
2022-07-31T21:15:40.721Z,21.06
2022-07-31T21:18:08.148Z,21.06
2022-07-31T21:20:51.384Z,21.10
2022-07-31T21:23:22.054Z,21.12
2022-07-31T21:25:48.882Z,21.15
2022-07-31T21:28:15.624Z,21.21
2022-07-31T21:30:42.283Z,21.18
2022-07-31T21:33:09.922Z,21.10
2022-07-31T21:35:37.564Z,21.01
2022-07-31T21:38:05.014Z,21.03
2022-07-31T21:40:36.049Z,20.95
2022-07-31T21:43:03.426Z,21.12
2022-07-31T21:45:51.035Z,20.96
2022-07-31T21:48:19.713Z,21.04
2022-07-31T21:50:46.674Z,21.07
2022-07-31T21:53:14.206Z,20.94
2022-07-31T21:55:41.037Z,20.95
2022-07-31T21:58:08.884Z,20.86
2022-07-31T22:00:35.496Z,20.86
2022-07-31T22:03:02.856Z,20.78
2022-07-31T22:05:48.723Z,20.87
2022-07-31T22:08:15.279Z,20.90
2022-07-31T22:10:42.130Z,20.91
2022-07-31T22:13:08.742Z,20.97
2022-07-31T22:15:55.560Z,20.98
2022-07-31T22:18:22.092Z,21.09
2022-07-31T22:20:48.727Z,21.15
2022-07-31T22:23:15.534Z,21.05
2022-07-31T22:25:42.957Z,21.20
2022-07-31T22:28:09.967Z,21.10
2022-07-31T22:30:36.646Z,21.08
2022-07-31T22:33:04.852Z,21.07
2022-07-31T22:35:32.460Z,20.79
2022-07-31T22:37:58.979Z,20.92
2022-07-31T22:40:25.616Z,20.94
2022-07-31T22:42:57.453Z,20.81
2022-07-31T22:45:25.279Z,20.76
2022-07-31T22:47:52.035Z,20.52
2022-07-31T22:50:18.588Z,20.63
2022-07-31T22:52:45.156Z,20.41
2022-07-31T22:55:13.598Z,20.53
2022-07-31T22:57:43.618Z,20.59
2022-07-31T23:00:13.167Z,20.60
2022-07-31T23:02:41.203Z,20.65
2022-07-31T23:05:08.976Z,20.77
2022-07-31T23:07:35.616Z,20.80
2022-07-31T23:10:02.420Z,20.69
2022-07-31T23:12:29.632Z,20.75
2022-07-31T23:14:56.461Z,20.64
2022-07-31T23:17:23.628Z,20.76
2022-07-31T23:19:54.191Z,20.45
2022-07-31T23:22:33.798Z,20.59
2022-07-31T23:25:05.232Z,20.65
2022-07-31T23:27:33.095Z,20.67
2022-07-31T23:30:00.029Z,20.68
2022-07-31T23:32:27.690Z,20.76
2022-07-31T23:34:54.546Z,20.81
2022-07-31T23:37:21.260Z,20.60
2022-07-31T23:39:47.773Z,20.53
2022-07-31T23:42:33.181Z,20.64
2022-07-31T23:44:59.754Z,20.57
2022-07-31T23:47:27.967Z,20.73
2022-07-31T23:50:11.790Z,20.58
2022-07-31T23:52:38.296Z,20.49
2022-07-31T23:55:05.061Z,20.57
2022-07-31T23:57:34.161Z,20.56
